sensor_id;sensor_type;location;lat;lon;timestamp;pressure;altitude;pressure_sealevel;temperature;humidity
46922;BME280;44039;48.336;10.454;2022-08-27T00:00:26;95693.03;;;19.40;100.00
46922;BME280;44039;48.336;10.454;2022-08-27T00:03:14;95689.84;;;19.37;100.00
46922;BME280;44039;48.336;10.454;2022-08-27T00:06:02;95690.59;;;19.55;100.00
46922;BME280;44039;48.336;10.454;2022-08-27T00:08:50;95691.84;;;19.35;100.00
46922;BME280;44039;48.336;10.454;2022-08-27T00:11:37;95691.47;;;19.30;100.00
46922;BME280;44039;48.336;10.454;2022-08-27T00:14:26;95693.78;;;19.25;100.00
46922;BME280;44039;48.336;10.454;2022-08-27T00:17:14;95688.91;;;19.04;100.00
46922;BME280;44039;48.336;10.454;2022-08-27T00:20:03;95694.94;;;18.88;100.00
46922;BME280;44039;48.336;10.454;2022-08-27T00:22:51;95689.09;;;18.84;100.00
46922;BME280;44039;48.336;10.454;2022-08-27T00:25:38;95700.63;;;18.75;100.00
46922;BME280;44039;48.336;10.454;2022-08-27T00:28:26;95687.78;;;18.80;100.00
46922;BME280;44039;48.336;10.454;2022-08-27T00:31:13;95693.94;;;18.89;100.00
46922;BME280;44039;48.336;10.454;2022-08-27T00:34:00;95692.19;;;19.06;100.00
46922;BME280;44039;48.336;10.454;2022-08-27T00:36:47;95692.31;;;18.96;100.00
46922;BME280;44039;48.336;10.454;2022-08-27T00:39:35;95690.72;;;19.03;100.00
46922;BME280;44039;48.336;10.454;2022-08-27T00:42:22;95691.22;;;18.73;100.00
46922;BME280;44039;48.336;10.454;2022-08-27T00:45:10;95688.00;;;18.87;100.00
46922;BME280;44039;48.336;10.454;2022-08-27T00:47:59;95689.06;;;18.76;100.00
46922;BME280;44039;48.336;10.454;2022-08-27T00:50:49;95685.91;;;18.55;100.00
46922;BME280;44039;48.336;10.454;2022-08-27T00:53:37;95688.34;;;18.66;100.00
46922;BME280;44039;48.336;10.454;2022-08-27T00:56:39;95676.13;;;18.47;100.00
46922;BME280;44039;48.336;10.454;2022-08-27T00:59:38;95678.81;;;18.29;100.00
46922;BME280;44039;48.336;10.454;2022-08-27T01:02:27;95678.97;;;18.72;100.00
46922;BME280;44039;48.336;10.454;2022-08-27T01:05:21;95675.44;;;18.45;100.00
46922;BME280;44039;48.336;10.454;2022-08-27T01:08:14;95674.91;;;18.85;100.00
46922;BME280;44039;48.336;10.454;2022-08-27T01:11:03;95679.16;;;18.78;100.00
46922;BME280;44039;48.336;10.454;2022-08-27T01:13:50;95679.81;;;18.72;100.00
46922;BME280;44039;48.336;10.454;2022-08-27T01:16:50;95682.31;;;18.56;100.00
46922;BME280;44039;48.336;10.454;2022-08-27T01:19:45;95680.91;;;18.70;100.00
46922;BME280;44039;48.336;10.454;2022-08-27T01:23:12;95681.63;;;18.72;100.00
46922;BME280;44039;48.336;10.454;2022-08-27T01:26:05;95673.84;;;18.52;100.00
46922;BME280;44039;48.336;10.454;2022-08-27T01:28:54;95681.81;;;18.34;100.00
46922;BME280;44039;48.336;10.454;2022-08-27T01:31:41;95671.88;;;18.72;100.00
46922;BME280;44039;48.336;10.454;2022-08-27T01:34:29;95676.69;;;18.33;100.00
46922;BME280;44039;48.336;10.454;2022-08-27T01:37:17;95676.81;;;18.49;100.00
46922;BME280;44039;48.336;10.454;2022-08-27T01:40:10;95673.06;;;18.34;100.00
46922;BME280;44039;48.336;10.454;2022-08-27T01:43:03;95676.13;;;18.47;100.00
46922;BME280;44039;48.336;10.454;2022-08-27T01:45:51;95683.16;;;18.56;100.00
46922;BME280;44039;48.336;10.454;2022-08-27T01:48:38;95679.25;;;18.43;100.00
46922;BME280;44039;48.336;10.454;2022-08-27T01:51:26;95673.47;;;18.47;100.00
46922;BME280;44039;48.336;10.454;2022-08-27T01:54:13;95678.72;;;18.65;100.00
46922;BME280;44039;48.336;10.454;2022-08-27T01:57:01;95673.19;;;18.76;100.00
46922;BME280;44039;48.336;10.454;2022-08-27T01:59:48;95667.31;;;18.65;100.00
46922;BME280;44039;48.336;10.454;2022-08-27T02:02:35;95676.75;;;18.41;100.00
46922;BME280;44039;48.336;10.454;2022-08-27T02:05:23;95674.78;;;18.43;100.00
46922;BME280;44039;48.336;10.454;2022-08-27T02:08:11;95673.56;;;18.38;100.00
46922;BME280;44039;48.336;10.454;2022-08-27T02:10:59;95673.34;;;18.05;100.00
46922;BME280;44039;48.336;10.454;2022-08-27T02:13:46;95674.16;;;18.05;100.00
46922;BME280;44039;48.336;10.454;2022-08-27T02:16:34;95666.97;;;18.16;100.00
46922;BME280;44039;48.336;10.454;2022-08-27T02:19:28;95672.78;;;18.01;100.00
46922;BME280;44039;48.336;10.454;2022-08-27T02:22:15;95668.13;;;17.77;100.00
46922;BME280;44039;48.336;10.454;2022-08-27T02:25:03;95672.41;;;17.78;100.00
46922;BME280;44039;48.336;10.454;2022-08-27T02:27:56;95667.91;;;17.89;100.00
46922;BME280;44039;48.336;10.454;2022-08-27T02:30:46;95672.53;;;17.87;100.00
46922;BME280;44039;48.336;10.454;2022-08-27T02:33:33;95662.00;;;17.77;100.00
46922;BME280;44039;48.336;10.454;2022-08-27T02:36:20;95656.44;;;17.80;100.00
46922;BME280;44039;48.336;10.454;2022-08-27T02:39:09;95655.13;;;18.20;100.00
46922;BME280;44039;48.336;10.454;2022-08-27T02:41:56;95649.31;;;18.16;100.00
46922;BME280;44039;48.336;10.454;2022-08-27T02:44:43;95652.31;;;18.47;100.00
46922;BME280;44039;48.336;10.454;2022-08-27T02:47:32;95644.94;;;18.07;100.00
46922;BME280;44039;48.336;10.454;2022-08-27T02:50:19;95640.66;;;18.06;100.00
46922;BME280;44039;48.336;10.454;2022-08-27T02:53:12;95653.41;;;18.11;100.00
46922;BME280;44039;48.336;10.454;2022-08-27T02:55:59;95652.03;;;18.06;100.00
46922;BME280;44039;48.336;10.454;2022-08-27T02:58:46;95652.34;;;17.86;100.00
46922;BME280;44039;48.336;10.454;2022-08-27T03:01:34;95658.41;;;17.96;100.00
46922;BME280;44039;48.336;10.454;2022-08-27T03:04:22;95659.97;;;18.06;100.00
46922;BME280;44039;48.336;10.454;2022-08-27T03:07:09;95654.41;;;18.36;100.00
46922;BME280;44039;48.336;10.454;2022-08-27T03:10:05;95646.19;;;17.95;100.00
46922;BME280;44039;48.336;10.454;2022-08-27T03:12:52;95648.75;;;17.87;100.00
46922;BME280;44039;48.336;10.454;2022-08-27T03:15:39;95643.38;;;17.78;100.00
46922;BME280;44039;48.336;10.454;2022-08-27T03:18:26;95638.56;;;17.74;100.00
46922;BME280;44039;48.336;10.454;2022-08-27T03:21:19;95637.22;;;17.88;100.00
46922;BME280;44039;48.336;10.454;2022-08-27T03:24:07;95639.38;;;18.10;100.00
46922;BME280;44039;48.336;10.454;2022-08-27T03:27:00;95634.47;;;18.41;100.00
46922;BME280;44039;48.336;10.454;2022-08-27T03:29:47;95636.50;;;17.86;100.00
46922;BME280;44039;48.336;10.454;2022-08-27T03:32:35;95637.25;;;17.78;100.00
46922;BME280;44039;48.336;10.454;2022-08-27T03:35:22;95641.78;;;17.50;100.00
46922;BME280;44039;48.336;10.454;2022-08-27T03:38:09;95646.06;;;17.33;100.00
46922;BME280;44039;48.336;10.454;2022-08-27T03:40:56;95644.09;;;17.53;100.00
46922;BME280;44039;48.336;10.454;2022-08-27T03:43:44;95632.34;;;17.65;100.00
46922;BME280;44039;48.336;10.454;2022-08-27T03:46:31;95635.44;;;17.61;100.00
46922;BME280;44039;48.336;10.454;2022-08-27T03:49:19;95644.66;;;17.57;100.00
46922;BME280;44039;48.336;10.454;2022-08-27T03:52:08;95637.66;;;17.83;100.00
46922;BME280;44039;48.336;10.454;2022-08-27T03:54:57;95645.88;;;17.98;100.00
46922;BME280;44039;48.336;10.454;2022-08-27T03:57:44;95641.31;;;18.26;100.00
46922;BME280;44039;48.336;10.454;2022-08-27T04:00:31;95641.38;;;18.16;100.00
46922;BME280;44039;48.336;10.454;2022-08-27T04:03:18;95643.56;;;18.21;100.00
46922;BME280;44039;48.336;10.454;2022-08-27T04:06:05;95636.72;;;18.10;100.00
46922;BME280;44039;48.336;10.454;2022-08-27T04:08:52;95637.19;;;18.31;100.00
46922;BME280;44039;48.336;10.454;2022-08-27T04:11:39;95640.09;;;18.46;100.00
46922;BME280;44039;48.336;10.454;2022-08-27T04:14:26;95638.22;;;18.39;100.00
46922;BME280;44039;48.336;10.454;2022-08-27T04:17:13;95634.75;;;18.38;100.00
46922;BME280;44039;48.336;10.454;2022-08-27T04:20:01;95628.03;;;18.00;100.00
46922;BME280;44039;48.336;10.454;2022-08-27T04:23:08;95629.56;;;18.02;100.00
46922;BME280;44039;48.336;10.454;2022-08-27T04:25:55;95629.00;;;18.17;100.00
46922;BME280;44039;48.336;10.454;2022-08-27T04:28:42;95634.25;;;17.91;100.00
46922;BME280;44039;48.336;10.454;2022-08-27T04:31:34;95637.56;;;18.11;100.00
46922;BME280;44039;48.336;10.454;2022-08-27T04:34:21;95644.50;;;18.38;100.00
46922;BME280;44039;48.336;10.454;2022-08-27T04:37:08;95638.22;;;18.13;100.00
46922;BME280;44039;48.336;10.454;2022-08-27T04:39:55;95639.59;;;17.99;100.00
46922;BME280;44039;48.336;10.454;2022-08-27T04:42:42;95635.91;;;17.92;100.00
46922;BME280;44039;48.336;10.454;2022-08-27T04:45:30;95639.50;;;18.09;100.00
46922;BME280;44039;48.336;10.454;2022-08-27T04:48:17;95633.81;;;17.95;100.00
46922;BME280;44039;48.336;10.454;2022-08-27T04:51:05;95638.69;;;18.08;100.00
46922;BME280;44039;48.336;10.454;2022-08-27T04:53:52;95638.91;;;18.15;100.00
46922;BME280;44039;48.336;10.454;2022-08-27T04:56:40;95640.56;;;18.16;100.00
46922;BME280;44039;48.336;10.454;2022-08-27T04:59:27;95644.72;;;18.00;100.00
46922;BME280;44039;48.336;10.454;2022-08-27T05:02:14;95655.06;;;18.38;100.00
46922;BME280;44039;48.336;10.454;2022-08-27T05:05:02;95647.09;;;18.29;100.00
46922;BME280;44039;48.336;10.454;2022-08-27T05:07:49;95647.69;;;18.41;100.00
46922;BME280;44039;48.336;10.454;2022-08-27T05:10:44;95646.59;;;18.08;100.00
46922;BME280;44039;48.336;10.454;2022-08-27T05:13:32;95655.91;;;17.94;100.00
46922;BME280;44039;48.336;10.454;2022-08-27T05:16:20;95644.44;;;18.03;100.00
46922;BME280;44039;48.336;10.454;2022-08-27T05:19:10;95645.47;;;18.11;100.00
46922;BME280;44039;48.336;10.454;2022-08-27T05:22:00;95639.31;;;18.28;100.00
46922;BME280;44039;48.336;10.454;2022-08-27T05:24:47;95638.19;;;18.56;100.00
46922;BME280;44039;48.336;10.454;2022-08-27T05:27:36;95638.28;;;18.47;100.00
46922;BME280;44039;48.336;10.454;2022-08-27T05:30:23;95649.38;;;18.50;100.00
46922;BME280;44039;48.336;10.454;2022-08-27T05:33:12;95642.75;;;18.46;100.00
46922;BME280;44039;48.336;10.454;2022-08-27T05:36:00;95638.59;;;18.44;100.00
46922;BME280;44039;48.336;10.454;2022-08-27T05:38:48;95645.03;;;18.41;100.00
46922;BME280;44039;48.336;10.454;2022-08-27T05:41:36;95639.03;;;18.57;100.00
46922;BME280;44039;48.336;10.454;2022-08-27T05:44:23;95643.66;;;18.81;100.00
46922;BME280;44039;48.336;10.454;2022-08-27T05:47:27;95642.28;;;18.77;100.00
46922;BME280;44039;48.336;10.454;2022-08-27T05:50:15;95650.06;;;18.78;100.00
46922;BME280;44039;48.336;10.454;2022-08-27T05:53:06;95655.06;;;18.81;100.00
46922;BME280;44039;48.336;10.454;2022-08-27T05:55:53;95659.09;;;18.68;100.00
46922;BME280;44039;48.336;10.454;2022-08-27T05:58:41;95663.38;;;18.43;100.00
46922;BME280;44039;48.336;10.454;2022-08-27T06:01:49;95668.03;;;18.67;100.00
46922;BME280;44039;48.336;10.454;2022-08-27T06:04:36;95667.91;;;19.02;100.00
46922;BME280;44039;48.336;10.454;2022-08-27T06:07:23;95666.97;;;19.20;100.00
46922;BME280;44039;48.336;10.454;2022-08-27T06:10:10;95665.66;;;19.24;100.00
46922;BME280;44039;48.336;10.454;2022-08-27T06:12:57;95672.44;;;18.92;100.00
46922;BME280;44039;48.336;10.454;2022-08-27T06:15:44;95664.22;;;18.95;100.00
46922;BME280;44039;48.336;10.454;2022-08-27T06:18:33;95668.50;;;18.44;100.00
46922;BME280;44039;48.336;10.454;2022-08-27T06:21:20;95666.28;;;18.57;100.00
46922;BME280;44039;48.336;10.454;2022-08-27T06:24:11;95665.50;;;18.91;100.00
46922;BME280;44039;48.336;10.454;2022-08-27T06:26:58;95667.06;;;19.02;100.00
46922;BME280;44039;48.336;10.454;2022-08-27T06:29:45;95672.75;;;18.81;100.00
46922;BME280;44039;48.336;10.454;2022-08-27T06:32:32;95664.06;;;18.97;100.00
46922;BME280;44039;48.336;10.454;2022-08-27T06:35:20;95672.63;;;18.91;100.00
46922;BME280;44039;48.336;10.454;2022-08-27T06:38:08;95664.22;;;18.95;100.00
46922;BME280;44039;48.336;10.454;2022-08-27T06:40:56;95664.59;;;19.08;100.00
46922;BME280;44039;48.336;10.454;2022-08-27T06:43:45;95664.81;;;19.23;100.00
46922;BME280;44039;48.336;10.454;2022-08-27T06:46:32;95670.56;;;19.10;100.00
46922;BME280;44039;48.336;10.454;2022-08-27T06:49:19;95663.75;;;19.08;100.00
46922;BME280;44039;48.336;10.454;2022-08-27T06:52:06;95674.75;;;18.87;100.00
46922;BME280;44039;48.336;10.454;2022-08-27T06:54:54;95672.38;;;19.10;100.00
46922;BME280;44039;48.336;10.454;2022-08-27T06:57:41;95675.03;;;19.10;100.00
46922;BME280;44039;48.336;10.454;2022-08-27T07:00:29;95677.75;;;18.92;100.00
46922;BME280;44039;48.336;10.454;2022-08-27T07:03:16;95675.53;;;19.13;100.00
46922;BME280;44039;48.336;10.454;2022-08-27T07:06:04;95668.31;;;19.90;100.00
46922;BME280;44039;48.336;10.454;2022-08-27T07:08:52;95670.41;;;19.62;100.00
46922;BME280;44039;48.336;10.454;2022-08-27T07:11:39;95674.88;;;19.62;100.00
46922;BME280;44039;48.336;10.454;2022-08-27T07:14:27;95682.00;;;19.61;100.00
46922;BME280;44039;48.336;10.454;2022-08-27T07:17:17;95682.03;;;18.93;100.00
46922;BME280;44039;48.336;10.454;2022-08-27T07:20:05;95691.75;;;18.84;100.00
46922;BME280;44039;48.336;10.454;2022-08-27T07:22:52;95688.72;;;19.05;100.00
46922;BME280;44039;48.336;10.454;2022-08-27T07:25:40;95691.47;;;19.30;100.00
46922;BME280;44039;48.336;10.454;2022-08-27T07:28:28;95693.47;;;19.28;100.00
46922;BME280;44039;48.336;10.454;2022-08-27T07:31:17;95692.94;;;19.66;100.00
46922;BME280;44039;48.336;10.454;2022-08-27T07:34:05;95687.69;;;19.91;100.00
46922;BME280;44039;48.336;10.454;2022-08-27T07:36:52;95687.06;;;20.13;100.00
46922;BME280;44039;48.336;10.454;2022-08-27T07:39:39;95689.88;;;20.28;100.00
46922;BME280;44039;48.336;10.454;2022-08-27T07:42:28;95690.66;;;20.94;100.00
46922;BME280;44039;48.336;10.454;2022-08-27T07:45:43;95686.34;;;21.48;100.00
46922;BME280;44039;48.336;10.454;2022-08-27T07:48:31;95686.31;;;21.56;100.00
46922;BME280;44039;48.336;10.454;2022-08-27T07:51:25;95684.56;;;21.41;100.00
46922;BME280;44039;48.336;10.454;2022-08-27T07:54:14;95689.63;;;21.11;100.00
46922;BME280;44039;48.336;10.454;2022-08-27T07:57:01;95698.50;;;20.46;100.00
46922;BME280;44039;48.336;10.454;2022-08-27T07:59:48;95706.63;;;20.37;100.00
46922;BME280;44039;48.336;10.454;2022-08-27T08:02:35;95707.63;;;20.52;100.00
46922;BME280;44039;48.336;10.454;2022-08-27T08:05:23;95696.75;;;21.10;100.00
46922;BME280;44039;48.336;10.454;2022-08-27T08:08:10;95706.97;;;20.66;100.00
46922;BME280;44039;48.336;10.454;2022-08-27T08:10:57;95708.78;;;20.74;100.00
46922;BME280;44039;48.336;10.454;2022-08-27T08:13:45;95717.47;;;21.15;100.00
46922;BME280;44039;48.336;10.454;2022-08-27T08:16:33;95723.31;;;21.02;100.00
46922;BME280;44039;48.336;10.454;2022-08-27T08:19:20;95723.88;;;20.57;100.00
46922;BME280;44039;48.336;10.454;2022-08-27T08:22:07;95725.03;;;20.71;100.00
46922;BME280;44039;48.336;10.454;2022-08-27T08:24:58;95729.19;;;20.49;100.00
46922;BME280;44039;48.336;10.454;2022-08-27T08:27:45;95730.66;;;20.35;100.00
46922;BME280;44039;48.336;10.454;2022-08-27T08:30:33;95726.88;;;20.70;100.00
46922;BME280;44039;48.336;10.454;2022-08-27T08:33:21;95720.34;;;20.89;100.00
46922;BME280;44039;48.336;10.454;2022-08-27T08:36:10;95730.19;;;20.64;100.00
46922;BME280;44039;48.336;10.454;2022-08-27T08:38:58;95721.28;;;21.13;100.00
46922;BME280;44039;48.336;10.454;2022-08-27T08:41:50;95716.22;;;21.50;100.00
46922;BME280;44039;48.336;10.454;2022-08-27T08:44:47;95724.34;;;21.49;100.00
46922;BME280;44039;48.336;10.454;2022-08-27T08:47:46;95716.31;;;21.96;100.00
46922;BME280;44039;48.336;10.454;2022-08-27T08:51:06;95714.78;;;22.02;100.00
46922;BME280;44039;48.336;10.454;2022-08-27T08:54:00;95719.84;;;21.02;100.00
46922;BME280;44039;48.336;10.454;2022-08-27T08:56:57;95716.72;;;21.46;100.00
46922;BME280;44039;48.336;10.454;2022-08-27T08:59:55;95725.00;;;20.95;100.00
46922;BME280;44039;48.336;10.454;2022-08-27T09:02:51;95727.09;;;21.08;100.00
46922;BME280;44039;48.336;10.454;2022-08-27T09:05:46;95721.16;;;21.53;100.00
46922;BME280;44039;48.336;10.454;2022-08-27T09:08:40;95713.25;;;21.76;100.00
46922;BME280;44039;48.336;10.454;2022-08-27T09:14:38;95716.78;;;21.69;100.00
46922;BME280;44039;48.336;10.454;2022-08-27T09:17:32;95705.22;;;21.84;100.00
46922;BME280;44039;48.336;10.454;2022-08-27T09:20:21;95721.56;;;21.42;100.00
46922;BME280;44039;48.336;10.454;2022-08-27T09:23:31;95728.47;;;20.96;100.00
46922;BME280;44039;48.336;10.454;2022-08-27T09:26:25;95716.97;;;21.28;100.00
46922;BME280;44039;48.336;10.454;2022-08-27T09:29:15;95710.53;;;21.84;100.00
46922;BME280;44039;48.336;10.454;2022-08-27T09:32:07;95728.72;;;21.25;100.00
46922;BME280;44039;48.336;10.454;2022-08-27T09:35:00;95716.03;;;22.37;100.00
46922;BME280;44039;48.336;10.454;2022-08-27T09:37:52;95715.88;;;22.15;100.00
46922;BME280;44039;48.336;10.454;2022-08-27T09:40:44;95708.88;;;23.57;93.32
46922;BME280;44039;48.336;10.454;2022-08-27T09:43:33;95715.00;;;21.61;100.00
46922;BME280;44039;48.336;10.454;2022-08-27T09:46:22;95715.84;;;21.53;100.00
46922;BME280;44039;48.336;10.454;2022-08-27T09:49:13;95704.66;;;22.66;91.98
46922;BME280;44039;48.336;10.454;2022-08-27T09:52:01;95709.25;;;22.11;100.00
46922;BME280;44039;48.336;10.454;2022-08-27T09:54:48;95704.75;;;22.58;97.87
46922;BME280;44039;48.336;10.454;2022-08-27T09:57:41;95683.78;;;24.02;85.86
46922;BME280;44039;48.336;10.454;2022-08-27T10:00:35;95677.00;;;24.99;78.23
46922;BME280;44039;48.336;10.454;2022-08-27T10:03:23;95672.41;;;25.48;77.92
46922;BME280;44039;48.336;10.454;2022-08-27T10:06:10;95673.75;;;25.31;76.39
46922;BME280;44039;48.336;10.454;2022-08-27T10:09:08;95688.59;;;23.41;86.61
46922;BME280;44039;48.336;10.454;2022-08-27T10:12:15;95696.53;;;22.82;94.64
46922;BME280;44039;48.336;10.454;2022-08-27T10:15:05;95692.47;;;22.34;96.50
46922;BME280;44039;48.336;10.454;2022-08-27T10:18:09;95670.03;;;23.84;80.95
46922;BME280;44039;48.336;10.454;2022-08-27T10:21:05;95674.59;;;23.54;82.76
46922;BME280;44039;48.336;10.454;2022-08-27T10:24:07;95662.84;;;24.42;80.28
46922;BME280;44039;48.336;10.454;2022-08-27T10:27:12;95651.03;;;26.89;69.15
46922;BME280;44039;48.336;10.454;2022-08-27T10:30:13;95646.41;;;25.84;67.42
46922;BME280;44039;48.336;10.454;2022-08-27T10:42:46;95662.25;;;24.25;80.46
46922;BME280;44039;48.336;10.454;2022-08-27T10:46:01;95656.97;;;24.81;77.31
46922;BME280;44039;48.336;10.454;2022-08-27T10:49:04;95691.03;;;22.23;95.44
46922;BME280;44039;48.336;10.454;2022-08-27T10:52:15;95691.72;;;21.71;100.00
46922;BME280;44039;48.336;10.454;2022-08-27T10:58:08;95684.75;;;21.70;100.00
46922;BME280;44039;48.336;10.454;2022-08-27T11:01:04;95697.84;;;21.72;100.00
46922;BME280;44039;48.336;10.454;2022-08-27T11:04:01;95691.72;;;21.71;100.00
46922;BME280;44039;48.336;10.454;2022-08-27T11:07:03;95690.63;;;21.57;100.00
46922;BME280;44039;48.336;10.454;2022-08-27T11:09:58;95677.69;;;21.85;100.00
46922;BME280;44039;48.336;10.454;2022-08-27T11:12:52;95686.72;;;21.37;100.00
46922;BME280;44039;48.336;10.454;2022-08-27T11:15:43;95671.34;;;21.86;100.00
46922;BME280;44039;48.336;10.454;2022-08-27T11:18:55;95673.41;;;21.76;100.00
46922;BME280;44039;48.336;10.454;2022-08-27T11:22:10;95677.38;;;22.03;100.00
46922;BME280;44039;48.336;10.454;2022-08-27T11:27:59;95657.50;;;23.78;88.56
46922;BME280;44039;48.336;10.454;2022-08-27T11:42:55;95672.69;;;21.82;99.23
46922;BME280;44039;48.336;10.454;2022-08-27T11:45:58;95674.97;;;21.93;100.00
46922;BME280;44039;48.336;10.454;2022-08-27T11:48:58;95665.53;;;22.14;96.02
46922;BME280;44039;48.336;10.454;2022-08-27T11:51:56;95676.63;;;21.95;100.00
46922;BME280;44039;48.336;10.454;2022-08-27T11:57:36;95688.69;;;22.28;100.00
46922;BME280;44039;48.336;10.454;2022-08-27T12:06:18;95703.25;;;21.00;100.00
46922;BME280;44039;48.336;10.454;2022-08-27T12:09:13;95701.97;;;20.22;100.00
46922;BME280;44039;48.336;10.454;2022-08-27T12:12:18;95706.59;;;19.96;100.00
46922;BME280;44039;48.336;10.454;2022-08-27T12:15:14;95700.47;;;20.36;100.00
46922;BME280;44039;48.336;10.454;2022-08-27T12:24:36;95691.88;;;20.42;100.00
46922;BME280;44039;48.336;10.454;2022-08-27T12:27:32;95686.22;;;20.62;100.00
46922;BME280;44039;48.336;10.454;2022-08-27T12:30:38;95679.91;;;21.43;97.36
46922;BME280;44039;48.336;10.454;2022-08-27T12:36:18;95679.97;;;21.18;100.00
46922;BME280;44039;48.336;10.454;2022-08-27T12:39:17;95677.97;;;21.28;94.65
46922;BME280;44039;48.336;10.454;2022-08-27T12:42:12;95680.25;;;20.76;99.13
46922;BME280;44039;48.336;10.454;2022-08-27T12:44:59;95679.06;;;20.95;98.94
46922;BME280;44039;48.336;10.454;2022-08-27T12:47:47;95670.72;;;21.06;97.89
46922;BME280;44039;48.336;10.454;2022-08-27T12:50:36;95678.13;;;20.63;100.00
46922;BME280;44039;48.336;10.454;2022-08-27T12:53:32;95676.78;;;20.67;100.00
46922;BME280;44039;48.336;10.454;2022-08-27T13:05:11;95672.84;;;20.55;100.00
46922;BME280;44039;48.336;10.454;2022-08-27T13:07:58;95669.09;;;20.97;100.00
46922;BME280;44039;48.336;10.454;2022-08-27T13:10:45;95667.44;;;20.96;100.00
46922;BME280;44039;48.336;10.454;2022-08-27T13:13:32;95674.03;;;21.00;100.00
46922;BME280;44039;48.336;10.454;2022-08-27T13:16:21;95666.50;;;20.72;100.00
46922;BME280;44039;48.336;10.454;2022-08-27T13:19:15;95663.84;;;20.72;100.00
46922;BME280;44039;48.336;10.454;2022-08-27T13:22:04;95662.88;;;20.65;100.00
46922;BME280;44039;48.336;10.454;2022-08-27T13:24:54;95671.34;;;21.16;100.00
46922;BME280;44039;48.336;10.454;2022-08-27T13:27:54;95671.97;;;19.81;100.00
46922;BME280;44039;48.336;10.454;2022-08-27T13:30:44;95666.19;;;20.51;100.00
46922;BME280;44039;48.336;10.454;2022-08-27T13:33:34;95660.63;;;20.93;100.00
46922;BME280;44039;48.336;10.454;2022-08-27T13:36:27;95659.94;;;20.99;100.00
46922;BME280;44039;48.336;10.454;2022-08-27T13:39:18;95676.78;;;20.59;100.00
46922;BME280;44039;48.336;10.454;2022-08-27T13:42:06;95668.19;;;21.21;100.00
46922;BME280;44039;48.336;10.454;2022-08-27T13:45:00;95673.69;;;20.47;100.00
46922;BME280;44039;48.336;10.454;2022-08-27T13:47:48;95667.94;;;20.91;100.00
46922;BME280;44039;48.336;10.454;2022-08-27T13:50:36;95668.97;;;20.74;100.00
46922;BME280;44039;48.336;10.454;2022-08-27T13:53:32;95664.72;;;21.12;100.00
46922;BME280;44039;48.336;10.454;2022-08-27T13:56:40;95665.38;;;20.59;100.00
46922;BME280;44039;48.336;10.454;2022-08-27T13:59:30;95657.59;;;21.13;100.00
46922;BME280;44039;48.336;10.454;2022-08-27T14:02:30;95655.13;;;22.04;100.00
46922;BME280;44039;48.336;10.454;2022-08-27T14:08:15;95660.38;;;20.72;100.00
46922;BME280;44039;48.336;10.454;2022-08-27T14:11:06;95646.69;;;22.01;94.52
46922;BME280;44039;48.336;10.454;2022-08-27T14:13:54;95656.28;;;22.10;98.74
46922;BME280;44039;48.336;10.454;2022-08-27T14:16:42;95648.28;;;21.56;98.45
46922;BME280;44039;48.336;10.454;2022-08-27T14:19:31;95642.59;;;21.90;95.13
46922;BME280;44039;48.336;10.454;2022-08-27T14:22:22;95651.25;;;21.84;93.98
46922;BME280;44039;48.336;10.454;2022-08-27T14:25:10;95651.28;;;21.53;96.79
46922;BME280;44039;48.336;10.454;2022-08-27T14:27:57;95656.03;;;22.19;90.20
46922;BME280;44039;48.336;10.454;2022-08-27T14:30:45;95639.66;;;22.45;89.12
46922;BME280;44039;48.336;10.454;2022-08-27T14:33:34;95643.16;;;22.46;93.60
46922;BME280;44039;48.336;10.454;2022-08-27T14:36:23;95633.78;;;22.88;86.58
46922;BME280;44039;48.336;10.454;2022-08-27T14:39:10;95642.63;;;22.13;91.21
46922;BME280;44039;48.336;10.454;2022-08-27T14:41:59;95640.38;;;23.07;87.63
46922;BME280;44039;48.336;10.454;2022-08-27T14:44:46;95646.41;;;22.71;89.53
46922;BME280;44039;48.336;10.454;2022-08-27T14:47:36;95635.72;;;22.41;92.33
46922;BME280;44039;48.336;10.454;2022-08-27T14:50:24;95639.50;;;22.47;91.30
46922;BME280;44039;48.336;10.454;2022-08-27T14:53:11;95640.09;;;22.34;92.44
46922;BME280;44039;48.336;10.454;2022-08-27T14:55:58;95627.78;;;23.15;84.41
46922;BME280;44039;48.336;10.454;2022-08-27T14:58:47;95644.66;;;21.80;100.00
46922;BME280;44039;48.336;10.454;2022-08-27T15:01:35;95637.47;;;22.11;95.49
46922;BME280;44039;48.336;10.454;2022-08-27T15:04:25;95646.94;;;21.29;100.00
46922;BME280;44039;48.336;10.454;2022-08-27T15:07:13;95641.56;;;21.91;100.00
46922;BME280;44039;48.336;10.454;2022-08-27T15:10:00;95637.41;;;21.97;100.00
46922;BME280;44039;48.336;10.454;2022-08-27T15:12:47;95628.84;;;22.32;94.51
46922;BME280;44039;48.336;10.454;2022-08-27T15:15:35;95632.47;;;22.31;97.24
46922;BME280;44039;48.336;10.454;2022-08-27T15:18:22;95641.06;;;21.42;100.00
46922;BME280;44039;48.336;10.454;2022-08-27T15:21:09;95642.41;;;21.37;100.00
46922;BME280;44039;48.336;10.454;2022-08-27T15:23:59;95635.34;;;22.44;98.26
46922;BME280;44039;48.336;10.454;2022-08-27T15:26:48;95636.03;;;22.24;99.97
46922;BME280;44039;48.336;10.454;2022-08-27T15:29:35;95637.09;;;21.91;100.00
46922;BME280;44039;48.336;10.454;2022-08-27T15:32:29;95629.75;;;22.54;98.16
46922;BME280;44039;48.336;10.454;2022-08-27T15:35:20;95627.19;;;22.46;98.30
46922;BME280;44039;48.336;10.454;2022-08-27T15:38:08;95624.94;;;22.58;99.50
46922;BME280;44039;48.336;10.454;2022-08-27T15:40:56;95632.09;;;22.72;96.94
46922;BME280;44039;48.336;10.454;2022-08-27T15:43:43;95625.38;;;22.61;95.37